Sedgwick Reserve, California Weather observations

Data are for 10 minute period ending at time listed.
 Day   Time   Solar   Ave.   Ave.  Ave.  Vector  Max.   Baro.   Total    
  of    of     Rad.   Air    Rel.  Wind   Wind   Wind  Press.  Precip.   
Year   Day            Temp.  Hum.  Speed  Dir.   Gust                    
2017   (PST)  Kw/m2    F      %     mph   deg.    mph    mb.     in.     
-------------------------------------------------------------------------
 266   22:10   0.00   49.2    73    4.7   308     8.6   969.9    0.00 
 266   22:20   0.00   49.3    73    1.7   331     5.3   969.9    0.00 
 266   22:30   0.00   50.1    72    2.0   309     3.7   969.9    0.00 
 266   22:40   0.00   49.7    73    1.6   334     6.1   969.9    0.00 
 266   22:50   0.00   48.8    74    2.7   358     5.4   969.9    0.00 
 266   23:00   0.00   48.1    76    2.9   339     4.9   969.8    0.00 
 266   23:10   0.00   47.7    78    2.0   277     4.7   969.7    0.00 
 266   23:20   0.00   47.5    78    2.8   309     7.6   969.7    0.00 
 266   23:30   0.00   48.1    77    3.7   348     7.1   969.7    0.00 
 266   23:40   0.00   47.8    76    3.6   330     7.0   969.6    0.00 
 266   23:50   0.00   47.7    77    3.3   325     6.4   969.6    0.00 
 267    0:00   0.00   48.0    77    2.6   319     4.9   969.6    0.00 
 267    0:10   0.00   47.9    78    1.3   320     4.2   969.5    0.00 
 267    0:20   0.00   47.3    78    2.1     4     5.0   969.6    0.00 
 267    0:30   0.00   46.9    79    4.2   311     8.3   969.6    0.00 
 267    0:40   0.00   47.8    77    3.4   317     6.5   969.7    0.00 
 267    0:50   0.00   47.3    77    5.0     5     9.5   969.6    0.00 
 267    1:00   0.00   48.2    75    2.7   351     8.0   969.6    0.00 
 267    1:10   0.00   48.4    75    2.1   302     6.8   969.8    0.00 
 267    1:20   0.00   48.5    74    2.7   321     5.9   969.8    0.00 
 267    1:30   0.00   48.4    74    2.2   317     3.9   969.8    0.00 
 267    1:40   0.00   47.8    75    2.5   330     6.5   969.8    0.00 
 267    1:50   0.00   48.2    74    2.4   358     6.5   969.7    0.00 
 267    2:00   0.00   48.7    72    3.0   305     6.2   969.5    0.00 
 267    2:10   0.00   48.1    73    2.8     0     6.4   969.5    0.00 
 267    2:20   0.00   48.1    72    2.0    56     6.0   969.5    0.00 
 267    2:30   0.00   47.1    74    3.0   282     5.0   969.4    0.00 
 267    2:40   0.00   48.5    70    3.1     1     7.4   969.4    0.00 
 267    2:50   0.00   48.5    69    3.7   294     6.8   969.3    0.00 
 267    3:00   0.00   49.6    65    4.0     8     8.3   969.3    0.00 
 267    3:10   0.00   49.8    63    3.9   311     8.0   969.4    0.00 
 267    3:20   0.00   49.7    62    3.9   359     8.0   969.4    0.00 
 267    3:30   0.00   49.4    62    4.1   341     8.6   969.4    0.00 
 267    3:40   0.00   49.6    61    4.0   347     8.6   969.4    0.00 
 267    3:50   0.00   49.4    60    3.0   309     6.4   969.4    0.00 
 267    4:00   0.00   49.1    60    2.4   311     5.6   969.4    0.00 
 267    4:10   0.00   49.0    60    2.7     4     6.4   969.4    0.00 
 267    4:20   0.00   49.4    58    2.7   319     5.5   969.5    0.00 
 267    4:30   0.00   48.9    58    2.5   356     5.8   969.6    0.00 
 267    4:40   0.00   48.5    59    3.1   340     7.4   969.5    0.00 
 267    4:50   0.00   48.5    58    2.3   322     5.1   969.5    0.00 
 267    5:00   0.00   48.7    56    0.5   319     2.7   969.5    0.00 
 267    5:10   0.00   48.1    58    0.5    41     2.3   969.6    0.00 
 267    5:20   0.00   47.3    59    1.1     2     2.8   969.7    0.00 
 267    5:30   0.00   47.1    58    1.8   338     5.6   969.7    0.00 
 267    5:40   0.00   47.7    56    1.5   305     3.3   969.8    0.00 
 267    5:50   0.00   47.6    56    0.5    35     4.6   969.9    0.00 
 267    6:00   0.01   48.1    54    2.3   337     6.9   969.9    0.00 
 267    6:10   0.01   48.1    54    1.0   352     3.4   969.9    0.00 
 267    6:20   0.07   48.6    53    0.9   327     3.1   970.0    0.00 
 267    6:30   0.11   49.7    52    0.4   258     1.7   970.1    0.00 
 267    6:40   0.15   50.7    53    0.0   280     0.7   970.2    0.00 
 267    6:50   0.19   52.8    52    0.2   301     0.9   970.3    0.00 
 267    7:00   0.23   55.9    46    0.1   241     0.8   970.5    0.00 
 267    7:10   0.27   59.5    43    0.0    17     0.7   970.6    0.00 
 267    7:20   0.30   61.7    42    0.2    64     1.2   970.8    0.00 
 267    7:30   0.34   63.6    38    0.2    33     1.9   970.8    0.00 
 267    7:40   0.38   66.6    35    0.1    43     1.2   970.9    0.00 
 267    7:50   0.41   69.4    29    0.1   194     0.8   970.9    0.00 
 267    8:00   0.45   70.8    25    1.0   193     2.0   970.9    0.00 
 267    8:10   0.48   70.9    23    1.2   152     2.7   970.9    0.00 
 267    8:20   0.51   71.2    23    2.7   139     4.5   970.8    0.00 
 267    8:30   0.54   71.9    24    2.8   114     4.9   970.8    0.00 
 267    8:40   0.57   72.4    26    3.2   125     5.0   970.7    0.00 
 267    8:50   0.60   71.9    26    3.5   133     5.3   970.7    0.00 
 267    9:00   0.62   73.0    24    2.4   151     4.8   970.7    0.00 
 267    9:10   0.65   74.8    23    2.9   153     5.7   970.6    0.00 
 267    9:20   0.67   73.8    23    3.6   222     6.2   970.6    0.00 
 267    9:30   0.69   74.5    23    3.6   220     6.4   970.6    0.00 
 267    9:40   0.72   74.6    21    5.2   236     7.7   970.7    0.00 
 267    9:50   0.73   74.8    19    4.0   238     7.8   970.7    0.00 
 267   10:00   0.75   76.1    18    4.1   164     7.7   970.7    0.00 
 267   10:10   0.77   76.6    18    5.3   210    10.4   970.7    0.00 
 267   10:20   0.78   75.6    19    6.8   194    10.4   970.7    0.00 
 267   10:30   0.79   76.1    19    5.3   197     9.4   970.7    0.00 
 267   10:40   0.81   77.3    18    4.1   206     9.3   970.6    0.00 
 267   10:50   0.82   76.4    19    7.5   229    14.0   970.5    0.00 
 267   11:00   0.82   76.5    20    6.5   237    11.2   970.6    0.00 
 267   11:10   0.82   77.5    20    5.5   234     9.3   970.6    0.00 
 267   11:20   0.80   78.1    19    6.0   214    13.5   970.5    0.00 
 267   11:30   0.83   77.7    19    7.8   243    14.4   970.3    0.00 
 267   11:40   0.83   77.8    19    7.1   257    12.9   970.3    0.00 
 267   11:50   0.83   78.1    19    7.1   242    12.9   970.2    0.00 
 267   12:00   0.83   78.4    19    4.7   232    12.1   970.1    0.00 
 267   12:10   0.82   78.6    19    8.0   174    14.0   969.9    0.00 
 267   12:20   0.81   79.2    19    6.4   194    12.2   969.8    0.00 
 267   12:30   0.80   79.8    18    6.8   169    15.1   969.8    0.00 
 267   12:40   0.79   80.0    18    7.5   182    12.9   969.6    0.00 
 267   12:50   0.78   80.2    18    6.4   193    11.2   969.5    0.00 
 267   13:00   0.76   80.0    18    7.3   229    14.0   969.4    0.00 
 267   13:10   0.75   80.0    18    9.7   247    16.4   969.3    0.00 
 267   13:20   0.73   80.6    17    7.5   244    14.8   969.2    0.00 
 267   13:30   0.71   82.1    16    4.5   195    11.5   969.1    0.00 
 267   13:40   0.69   82.2    16    5.0   256    10.7   969.1    0.00 
 267   13:50   0.67   82.3    16    7.3   244    17.3   969.0    0.00 
 267   14:00   0.64   81.2    17   10.8   242    18.2   969.0    0.00 
 267   14:10   0.62   81.4    16    9.8   266    15.5   968.9    0.00 
 267   14:20   0.59   82.4    16    7.2   315    13.9   968.8    0.00 
 267   14:30   0.57   82.3    16    8.4   274    16.7   968.7    0.00 
 267   14:40   0.54   81.2    16    8.6   232    17.2   968.7    0.00 
 267   14:50   0.51   81.5    16    9.0   280    14.8   968.7    0.00 
 267   15:00   0.47   82.6    16    6.5   290    12.8   968.7    0.00 
 267   15:10   0.44   82.6    18    9.3   280    15.9   968.7    0.00 
 267   15:20   0.41   80.9    19   10.0   274    16.7   968.8    0.00 
 267   15:30   0.37   79.9    21   11.5   288    20.8   968.9    0.00 
 267   15:40   0.34   79.8    21    9.4   274    20.8   968.9    0.00 
 267   15:50   0.31   79.2    22    9.3   297    18.8   969.0    0.00 
 267   16:00   0.28   78.7    23    7.8   298    16.7   969.0    0.00 
 267   16:10   0.24   78.1    24    9.0   316    16.4   969.1    0.00 
 267   16:20   0.21   77.7    24    7.6   291    14.4   969.1    0.00 
 267   16:30   0.17   78.4    23    4.9   318    10.2   969.1    0.00 
 267   16:40   0.14   77.3    24    7.3   305    12.8   969.2    0.00 
 267   16:50   0.11   76.3    24    8.3   294    15.4   969.3    0.00 
 267   17:00   0.09   75.6    24    8.5   305    12.1   969.4    0.00 
 267   17:10   0.06   75.2    24    5.6   314    11.5   969.4    0.00 
 267   17:20   0.04   74.0    24    5.2   319    10.7   969.5    0.00 
 267   17:30   0.02   73.9    23    5.0   307     8.3   969.5    0.00 
 267   17:40   0.01   72.9    24    4.0   326     8.3   969.6    0.00 
 267   17:50   0.01   71.4    25    4.5   325     6.6   969.8    0.00 
 267   18:00   0.00   70.7    26    3.9   323     6.9   969.9    0.00 
 267   18:10   0.00   70.2    26    4.4   318     6.4   970.1    0.00 
 267   18:20   0.00   69.2    26    4.6   309     7.3   970.2    0.00 
 267   18:30   0.00   67.9    27    3.6   307     5.5   970.4    0.00 
 267   18:40   0.00   66.1    30    0.4   284     2.3   970.5    0.00 
 267   18:50   0.00   65.0    31    0.2    10     3.8   970.6    0.00 
 267   19:00   0.00   62.9    34    2.2   344     3.9   970.7    0.00 
 267   19:10   0.00   59.7    38    4.9   356     7.4   970.8    0.00 
 267   19:20   0.00   58.9    39    3.1   356     5.2   970.9    0.00 
 267   19:30   0.00   58.2    39    1.1   350     4.8   971.0    0.00 
 267   19:40   0.00   57.7    40    2.2   348     3.8   971.2    0.00 
 267   19:50   0.00   57.0    40    0.9   291     2.3   971.2    0.00 
 267   20:00   0.00   56.6    42    2.7   359     5.6   971.2    0.00 
 267   20:10   0.00   56.6    41    2.0   325     5.0   971.2    0.00 
 267   20:20   0.00   56.1    42    2.1   290     4.2   971.3    0.00 
 267   20:30   0.00   55.5    42    3.5   265     6.6   971.4    0.00 
 267   20:40   0.00   55.2    44    2.1     7     3.9   971.4    0.00 
 267   20:50   0.00   54.1    46    2.4   358     5.3   971.4    0.00 
 267   21:00   0.00   53.1    47    3.6   358     6.0   971.4    0.00 
 267   21:10   0.00   53.1    47    2.1   307     6.5   971.4    0.00 
 267   21:20   0.00   53.2    47    1.9   342     4.8   971.4    0.00 
 267   21:30   0.00   52.2    48    2.6   274     6.0   971.3    0.00 
 267   21:40   0.00   52.1    49    4.2   341     7.7   971.3    0.00 
 267   21:50   0.00   52.0    49    2.8   314     5.7   971.4    0.00 
 267   22:00   0.00   53.2    47    3.1   344     5.5   971.4    0.00 

Return to Sedgwick Reserve graphs page.


Western Regional Climate Center,wrcc@dri.edu